createdAt,value
2023-01-04T00:00:25.370Z,6
2023-01-04T00:05:49.602Z,6.1
2023-01-04T00:16:07.754Z,6.1
2023-01-04T00:21:30.386Z,6.2
2023-01-04T00:26:37.251Z,6.3
2023-01-04T00:31:48.254Z,6.3
2023-01-04T00:37:13.424Z,6.3
2023-01-04T00:43:07.534Z,6.4
2023-01-04T00:48:31.075Z,6.4
2023-01-04T00:53:54.654Z,6.4
2023-01-04T00:59:16.893Z,6.4
2023-01-04T01:04:32.946Z,6.4
2023-01-04T01:09:40.548Z,6.4
2023-01-04T01:15:02.119Z,6.4
2023-01-04T01:20:39.354Z,6.4
2023-01-04T01:25:46.451Z,6.3
2023-01-04T01:31:09.095Z,6.4
2023-01-04T01:36:00.556Z,6.3
2023-01-04T01:41:23.375Z,6.3
2023-01-04T01:46:45.693Z,6.3
2023-01-04T01:52:07.668Z,6.3
2023-01-04T01:57:15.090Z,6.3
2023-01-04T02:02:39.061Z,6.3
2023-01-04T02:07:47.363Z,6.3
2023-01-04T02:13:10.075Z,6.3
2023-01-04T02:18:16.766Z,6.2
2023-01-04T02:23:38.745Z,6.2
2023-01-04T02:29:01.879Z,6.1
2023-01-04T02:34:23.568Z,6.1
2023-01-04T02:39:47.933Z,6.1
2023-01-04T02:45:02.865Z,6.1
2023-01-04T02:55:17.564Z,6.1
2023-01-04T03:00:16.734Z,6.1
2023-01-04T03:05:10.060Z,6.1
2023-01-04T03:10:17.141Z,6.1
2023-01-04T03:15:29.130Z,6.1
2023-01-04T03:20:36.819Z,6.1
2023-01-04T03:25:28.228Z,6.1
2023-01-04T03:30:04.247Z,6
2023-01-04T03:34:55.783Z,6
2023-01-04T03:39:31.968Z,6
2023-01-04T03:44:07.112Z,6
2023-01-04T03:48:33.384Z,5.9
2023-01-04T03:53:24.460Z,6
2023-01-04T04:02:53.457Z,6
2023-01-04T04:08:01.011Z,6
2023-01-04T04:12:36.896Z,6.1
2023-01-04T04:17:28.963Z,6.1
2023-01-04T04:22:20.652Z,6.1
2023-01-04T04:26:41.628Z,6.1
2023-01-04T04:31:16.962Z,6.2
2023-01-04T04:35:53.755Z,6.2
2023-01-04T04:40:45.574Z,6.3
2023-01-04T04:45:52.857Z,6.3
2023-01-04T04:50:44.713Z,6.3
2023-01-04T04:55:36.350Z,6.3
2023-01-04T05:00:43.747Z,6.4
2023-01-04T05:05:36.902Z,6.4
2023-01-04T05:10:28.234Z,6.4
2023-01-04T05:15:19.935Z,6.4
2023-01-04T05:20:12.068Z,6.4
2023-01-04T05:25:05.177Z,6.5
2023-01-04T05:30:12.057Z,6.6
2023-01-04T05:35:03.882Z,6.5
2023-01-04T05:39:55.309Z,6.6
2023-01-04T05:45:02.872Z,6.6
2023-01-04T05:54:19.468Z,6.6
2023-01-04T05:59:12.971Z,6.6
2023-01-04T06:03:55.957Z,6.6
2023-01-04T06:08:48.912Z,6.7
2023-01-04T06:13:48.050Z,6.7
2023-01-04T06:18:40.144Z,6.7
2023-01-04T06:23:16.049Z,6.8
2023-01-04T06:28:23.415Z,6.8
2023-01-04T06:33:15.620Z,6.8
2023-01-04T06:38:41.146Z,6.8
2023-01-04T06:43:53.445Z,6.9
2023-01-04T06:49:04.893Z,6.9
2023-01-04T06:54:12.440Z,7
2023-01-04T06:59:18.761Z,7.1
2023-01-04T07:05:02.390Z,7.3
2023-01-04T07:09:55.769Z,7.5
2023-01-04T07:14:46.475Z,7.9
2023-01-04T07:20:12.929Z,8.1
2023-01-04T07:25:25.391Z,8.3
2023-01-04T07:30:31.868Z,8.4
2023-01-04T07:35:41.716Z,8.6
2023-01-04T07:40:55.743Z,8.9
2023-01-04T07:46:05.752Z,9.2
2023-01-04T07:51:20.239Z,9.4
2023-01-04T07:56:16.852Z,9.6
2023-01-04T08:01:09.681Z,9.9
2023-01-04T08:06:06.234Z,10.1
2023-01-04T08:10:42.674Z,10.4
2023-01-04T08:15:18.394Z,10.6
2023-01-04T08:20:25.791Z,10.9
2023-01-04T08:25:17.172Z,11.1
2023-01-04T08:30:13.824Z,11.4
2023-01-04T08:35:36.082Z,11.6
2023-01-04T08:43:00.606Z,12
2023-01-04T08:48:11.487Z,12.3
2023-01-04T08:53:22.086Z,12.6
2023-01-04T08:58:19.991Z,12.8
2023-01-04T09:03:36.360Z,13
2023-01-04T09:08:49.851Z,13.2
2023-01-04T09:13:41.362Z,13.3
2023-01-04T09:19:27.179Z,13.3
2023-01-04T09:24:35.352Z,13.4
2023-01-04T09:30:00.655Z,13.3
2023-01-04T09:35:45.001Z,13.3
2023-01-04T09:40:54.713Z,13.4
2023-01-04T09:47:19.441Z,13.4
2023-01-04T09:52:26.423Z,13.4
2023-01-04T09:58:01.022Z,13.4
2023-01-04T10:03:09.899Z,13.4
2023-01-04T10:08:17.698Z,13.6
2023-01-04T10:13:25.025Z,13.8
2023-01-04T10:22:12.099Z,14.3
2023-01-04T10:27:19.420Z,14.8
2023-01-04T10:33:09.617Z,15.4
2023-01-04T10:38:19.112Z,15.6
2023-01-04T10:43:35.391Z,15.6
2023-01-04T10:49:25.198Z,15.4
2023-01-04T10:54:37.248Z,15.3
2023-01-04T11:00:24.268Z,15.3
2023-01-04T11:05:33.659Z,15.3
2023-01-04T11:10:59.508Z,15.4
2023-01-04T11:16:08.661Z,15.6
2023-01-04T11:21:22.213Z,15.8
2023-01-04T11:27:47.879Z,16.1
2023-01-04T11:32:24.191Z,16.3
2023-01-04T11:37:15.942Z,16.8
2023-01-04T11:42:26.117Z,17.6
2023-01-04T11:47:34.034Z,19.6
2023-01-04T11:52:48.391Z,22
2023-01-04T11:58:11.401Z,13.2
2023-01-04T12:04:13.554Z,22.6
2023-01-04T12:09:46.181Z,23.5
2023-01-04T12:15:09.548Z,24.8
2023-01-04T12:20:20.645Z,25.2
2023-01-04T12:25:17.314Z,24.8
2023-01-04T12:30:25.902Z,24.6
2023-01-04T12:35:51.331Z,24.1
2023-01-04T12:41:19.673Z,23.9
2023-01-04T12:46:42.830Z,23.8
2023-01-04T12:53:36.598Z,23.7
2023-01-04T12:59:43.392Z,23.5
2023-01-04T13:06:10.097Z,23.3
2023-01-04T13:11:19.397Z,23.1
2023-01-04T13:16:31.395Z,22.9
2023-01-04T13:21:55.197Z,22.8
2023-01-04T13:27:18.850Z,22.6
2023-01-04T13:32:52.769Z,22.3
2023-01-04T13:38:40.707Z,22.2
2023-01-04T13:44:03.583Z,21.9
2023-01-04T13:50:05.611Z,21.7
2023-01-04T13:56:06.251Z,21.5
2023-01-04T14:06:29.724Z,20.3
2023-01-04T14:11:52.770Z,19.4
2023-01-04T14:17:15.810Z,18.6
2023-01-04T14:22:23.943Z,17.8
2023-01-04T14:28:09.207Z,17.1
2023-01-04T14:33:23.648Z,16.4
2023-01-04T14:38:35.887Z,15.8
2023-01-04T14:43:47.315Z,15.2
2023-01-04T14:49:02.832Z,14.6
2023-01-04T14:54:10.308Z,14.1
2023-01-04T14:59:17.422Z,13.7
2023-01-04T15:09:21.026Z,12.8
2023-01-04T15:14:35.029Z,12.4
2023-01-04T15:19:42.999Z,12.1
2023-01-04T15:24:52.159Z,11.7
2023-01-04T15:30:21.872Z,11.4
2023-01-04T15:35:42.752Z,11.1
2023-01-04T15:41:30.837Z,10.8
2023-01-04T15:47:00.488Z,10.5
2023-01-04T15:52:27.204Z,10.3
2023-01-04T15:57:41.872Z,10
2023-01-04T16:03:00.968Z,9.8
2023-01-04T16:08:15.388Z,9.6
2023-01-04T16:13:38.573Z,9.4
2023-01-04T16:19:06.777Z,9.2
2023-01-04T16:24:37.323Z,9
2023-01-04T16:30:17.175Z,8.8
2023-01-04T16:35:25.245Z,8.7
2023-01-04T16:41:17.682Z,8.6
2023-01-04T16:46:43.407Z,8.4
2023-01-04T16:51:51.166Z,8.3
2023-01-04T16:57:13.510Z,8.2
2023-01-04T17:02:46.224Z,8.1
2023-01-04T17:08:09.700Z,8
2023-01-04T17:14:34.770Z,7.8
2023-01-04T17:20:19.376Z,7.8
2023-01-04T17:25:50.055Z,7.7
2023-01-04T17:31:02.447Z,7.6
2023-01-04T17:36:25.853Z,7.5
2023-01-04T17:41:35.762Z,7.4
2023-01-04T17:46:45.998Z,7.4
2023-01-04T17:52:22.317Z,7.3
2023-01-04T17:57:32.493Z,7.2
2023-01-04T18:02:30.420Z,7.2
2023-01-04T18:08:12.445Z,7.1
2023-01-04T18:14:01.850Z,7
2023-01-04T18:19:28.967Z,6.9
2023-01-04T18:25:32.040Z,6.9
2023-01-04T18:31:15.107Z,6.8
2023-01-04T18:36:26.811Z,6.8
2023-01-04T18:41:52.287Z,6.8
2023-01-04T18:47:44.697Z,6.7
2023-01-04T18:52:37.683Z,6.6
2023-01-04T18:57:52.945Z,6.6
2023-01-04T19:03:04.325Z,6.6
2023-01-04T19:08:14.603Z,6.6
2023-01-04T19:13:29.087Z,6.5
2023-01-04T19:18:41.863Z,6.5
2023-01-04T19:23:49.271Z,6.4
2023-01-04T19:28:56.758Z,6.4
2023-01-04T19:33:49.279Z,6.4
2023-01-04T19:38:56.622Z,6.3
2023-01-04T19:44:11.449Z,6.3
2023-01-04T19:49:03.551Z,6.3
2023-01-04T19:54:10.547Z,6.2
2023-01-04T19:59:33.425Z,6.2
2023-01-04T20:04:58.700Z,6.1
2023-01-04T20:10:10.543Z,6.1
2023-01-04T20:15:20.868Z,6.1
2023-01-04T20:20:35.163Z,6
2023-01-04T20:25:41.995Z,6
2023-01-04T20:30:48.778Z,5.9
2023-01-04T20:36:02.322Z,5.9
2023-01-04T20:41:17.245Z,5.9
2023-01-04T20:46:25.302Z,5.8
2023-01-04T20:51:37.848Z,5.8
2023-01-04T20:57:03.927Z,5.7
2023-01-04T21:02:12.194Z,5.7
2023-01-04T21:07:26.705Z,5.6
2023-01-04T21:12:35.142Z,5.6
2023-01-04T21:17:27.256Z,5.6
2023-01-04T21:22:34.231Z,5.6
2023-01-04T21:27:42.297Z,5.5
2023-01-04T21:32:49.559Z,5.5
2023-01-04T21:38:01.768Z,5.4
2023-01-04T21:43:15.400Z,5.4
2023-01-04T21:48:22.519Z,5.4
2023-01-04T21:53:29.541Z,5.4
2023-01-04T21:58:44.751Z,5.4
2023-01-04T22:03:23.213Z,5.4
2023-01-04T22:08:46.335Z,5.4
2023-01-04T22:13:57.926Z,5.4
2023-01-04T22:19:05.818Z,5.4
2023-01-04T22:24:13.071Z,5.4
2023-01-04T22:29:32.165Z,5.4
2023-01-04T22:34:39.066Z,5.4
2023-01-04T22:39:50.524Z,5.4
2023-01-04T22:44:57.788Z,5.4
2023-01-04T22:49:50.575Z,5.3
2023-01-04T22:54:58.145Z,5.3
2023-01-04T23:00:25.544Z,5.3
2023-01-04T23:10:25.815Z,5.1
2023-01-04T23:15:32.890Z,5.1
2023-01-04T23:20:49.760Z,5
2023-01-04T23:25:41.704Z,4.9
2023-01-04T23:30:33.173Z,4.9
2023-01-04T23:35:40.712Z,4.8
2023-01-04T23:45:23.703Z,4.7
2023-01-04T23:50:45.101Z,4.6
2023-01-04T23:56:08.274Z,4.5
